createdAt,value
2018-12-07T00:00:25.201Z,13.20
2018-12-07T00:05:19.066Z,13.10
2018-12-07T00:10:12.440Z,12.90
2018-12-07T00:15:07.230Z,12.90
2018-12-07T00:20:00.440Z,12.90
2018-12-07T00:24:53.760Z,12.80
2018-12-07T00:29:46.946Z,12.80
2018-12-07T00:34:40.138Z,12.80
2018-12-07T00:39:33.386Z,12.80
2018-12-07T00:44:26.579Z,12.80
2018-12-07T00:49:19.803Z,12.80
2018-12-07T00:54:13.031Z,12.80
2018-12-07T00:59:06.249Z,12.90
2018-12-07T01:03:59.530Z,12.90
2018-12-07T01:08:52.830Z,12.90
2018-12-07T01:13:46.076Z,12.90
2018-12-07T01:18:39.301Z,12.90
2018-12-07T01:23:32.533Z,12.90
2018-12-07T01:28:25.753Z,12.90
2018-12-07T01:33:19.063Z,12.90
2018-12-07T01:38:12.343Z,12.80
2018-12-07T01:43:05.692Z,12.70
2018-12-07T01:47:58.932Z,12.60
2018-12-07T01:52:52.109Z,12.60
2018-12-07T01:57:45.293Z,12.60
2018-12-07T02:02:38.561Z,12.60
2018-12-07T02:07:34.113Z,12.60
2018-12-07T02:12:28.116Z,12.60
2018-12-07T02:17:21.363Z,12.60
2018-12-07T02:22:14.587Z,12.50
2018-12-07T02:27:07.808Z,12.40
2018-12-07T02:32:01.002Z,12.40
2018-12-07T02:36:54.322Z,12.40
2018-12-07T02:41:47.598Z,12.40
2018-12-07T02:46:40.953Z,12.40
2018-12-07T02:51:34.163Z,12.30
2018-12-07T02:56:27.409Z,12.40
2018-12-07T03:01:20.599Z,12.40
2018-12-07T03:06:13.879Z,12.40
2018-12-07T03:11:07.114Z,12.40
2018-12-07T03:16:00.356Z,12.40
2018-12-07T03:20:53.617Z,12.40
2018-12-07T03:25:46.806Z,12.40
2018-12-07T03:30:40.037Z,12.40
2018-12-07T03:35:33.269Z,12.40
2018-12-07T03:40:26.461Z,12.40
2018-12-07T03:45:19.964Z,12.40
2018-12-07T03:50:13.184Z,12.50
2018-12-07T03:55:06.370Z,12.50
2018-12-07T03:59:59.542Z,12.50
2018-12-07T04:04:52.761Z,12.50
2018-12-07T04:09:45.999Z,12.50
2018-12-07T04:14:39.186Z,12.40
2018-12-07T04:19:32.375Z,12.50
2018-12-07T04:24:25.596Z,12.30
2018-12-07T04:29:18.819Z,12.30
2018-12-07T04:34:11.973Z,12.20
2018-12-07T04:39:06.940Z,12.10
2018-12-07T04:44:00.141Z,11.90
2018-12-07T04:48:53.379Z,11.90
2018-12-07T04:53:46.627Z,11.90
2018-12-07T04:58:39.914Z,11.70
2018-12-07T05:08:26.276Z,11.60
2018-12-07T05:13:19.873Z,11.60
2018-12-07T05:18:13.181Z,11.50
2018-12-07T05:23:06.933Z,11.40
2018-12-07T05:28:00.153Z,11.30
2018-12-07T05:32:53.376Z,11.30
2018-12-07T05:37:47.897Z,11.20
2018-12-07T05:42:41.183Z,11.10
2018-12-07T05:47:34.585Z,11.00
2018-12-07T05:52:27.778Z,10.90
2018-12-07T05:57:21.054Z,10.90
2018-12-07T06:02:14.287Z,10.90
2018-12-07T06:07:07.497Z,10.90
2018-12-07T06:12:00.784Z,10.90
2018-12-07T06:16:54.000Z,10.90
2018-12-07T06:21:47.275Z,11.00
2018-12-07T06:26:40.518Z,11.00
2018-12-07T06:31:33.745Z,11.10
2018-12-07T06:36:26.997Z,11.10
2018-12-07T06:41:20.243Z,11.00
2018-12-07T06:46:13.470Z,11.00
2018-12-07T06:51:06.729Z,11.10
2018-12-07T06:55:59.967Z,11.20
2018-12-07T07:00:53.225Z,11.20
2018-12-07T07:05:46.438Z,11.30
2018-12-07T07:10:39.611Z,11.40
2018-12-07T07:15:32.812Z,11.50
2018-12-07T07:20:26.035Z,11.50
2018-12-07T07:25:19.318Z,11.60
2018-12-07T07:30:12.645Z,11.60
2018-12-07T07:35:06.637Z,11.70
2018-12-07T07:39:59.813Z,11.70
2018-12-07T07:44:53.020Z,11.80
2018-12-07T07:49:46.359Z,12.00
2018-12-07T07:54:39.577Z,12.10
2018-12-07T07:59:32.900Z,12.10
2018-12-07T08:04:26.256Z,12.20
2018-12-07T08:09:19.474Z,12.30
2018-12-07T08:14:12.881Z,12.30
2018-12-07T08:19:06.275Z,12.30
2018-12-07T08:23:59.533Z,12.30
2018-12-07T08:28:52.774Z,12.40
2018-12-07T08:33:46.062Z,12.40
2018-12-07T08:38:39.847Z,12.40
2018-12-07T08:43:33.427Z,12.50
2018-12-07T08:48:27.598Z,12.50
2018-12-07T08:53:20.820Z,12.50
2018-12-07T08:58:14.042Z,12.50
2018-12-07T09:03:07.286Z,12.60
2018-12-07T09:08:01.164Z,12.60
2018-12-07T09:12:54.436Z,12.60
2018-12-07T09:17:48.789Z,12.60
2018-12-07T09:22:42.248Z,12.90
2018-12-07T09:27:35.474Z,12.70
2018-12-07T09:32:28.743Z,12.70
2018-12-07T09:37:22.031Z,12.80
2018-12-07T09:42:15.258Z,12.70
2018-12-07T09:47:08.445Z,12.70
2018-12-07T09:52:01.816Z,12.70
2018-12-07T09:56:57.005Z,12.80
2018-12-07T10:01:50.860Z,12.70
2018-12-07T10:06:44.074Z,12.60
2018-12-07T10:11:37.385Z,12.50
2018-12-07T10:16:30.629Z,12.50
2018-12-07T10:21:23.904Z,12.60
2018-12-07T10:26:17.116Z,12.60
2018-12-07T10:31:10.343Z,12.70
2018-12-07T10:36:03.694Z,12.70
2018-12-07T10:40:57.001Z,12.70
2018-12-07T10:45:50.213Z,12.70
2018-12-07T10:50:43.442Z,12.80
2018-12-07T10:55:36.642Z,12.80
2018-12-07T11:00:35.649Z,12.80
2018-12-07T11:05:34.476Z,12.90
2018-12-07T11:10:33.267Z,13.00
2018-12-07T11:15:32.087Z,13.10
2018-12-07T11:20:31.097Z,13.00
2018-12-07T11:25:29.993Z,13.10
2018-12-07T11:30:30.739Z,13.00
2018-12-07T11:35:30.132Z,13.10
2018-12-07T11:40:23.605Z,13.10
2018-12-07T11:45:16.783Z,13.10
2018-12-07T11:50:10.449Z,13.10
2018-12-07T11:55:04.492Z,13.10
2018-12-07T11:59:57.789Z,13.20
2018-12-07T12:04:51.000Z,13.40
2018-12-07T12:09:44.258Z,13.40
2018-12-07T12:14:37.490Z,13.40
2018-12-07T12:19:30.724Z,13.30
2018-12-07T12:24:23.900Z,13.30
2018-12-07T12:29:17.139Z,13.30
2018-12-07T12:34:11.317Z,13.30
2018-12-07T12:39:07.371Z,13.30
2018-12-07T12:44:00.660Z,13.30
2018-12-07T12:48:53.921Z,13.30
2018-12-07T12:53:47.164Z,13.30
2018-12-07T12:58:40.343Z,13.40
2018-12-07T13:03:33.547Z,13.40
2018-12-07T13:08:27.167Z,13.60
2018-12-07T13:13:20.383Z,13.90
2018-12-07T13:18:13.587Z,13.80
2018-12-07T13:23:06.809Z,13.70
2018-12-07T13:28:00.218Z,13.90
2018-12-07T13:32:53.493Z,14.00
2018-12-07T13:37:46.708Z,13.80
2018-12-07T13:42:40.040Z,13.70
2018-12-07T13:47:33.412Z,13.60
2018-12-07T13:52:27.254Z,13.40
2018-12-07T13:57:20.887Z,13.50
2018-12-07T14:02:14.349Z,13.40
2018-12-07T14:07:07.733Z,13.30
2018-12-07T14:12:01.217Z,13.30
2018-12-07T14:16:54.641Z,13.20
2018-12-07T14:21:48.091Z,13.20
2018-12-07T14:26:41.504Z,13.10
2018-12-07T14:31:34.806Z,13.00
2018-12-07T14:36:28.351Z,12.90
2018-12-07T14:41:21.987Z,12.90
2018-12-07T14:46:15.590Z,12.80
2018-12-07T14:51:08.935Z,12.70
2018-12-07T14:56:02.330Z,12.70
2018-12-07T15:00:55.911Z,12.70
2018-12-07T15:05:49.271Z,12.60
2018-12-07T15:10:42.591Z,12.60
2018-12-07T15:15:35.940Z,12.60
2018-12-07T15:20:30.158Z,12.60
2018-12-07T15:25:24.767Z,12.50
2018-12-07T15:30:18.192Z,12.30
2018-12-07T15:35:11.585Z,12.10
2018-12-07T15:40:08.074Z,11.90
2018-12-07T15:45:01.503Z,11.80
2018-12-07T15:49:54.752Z,11.60
2018-12-07T15:54:48.476Z,11.40
2018-12-07T15:59:42.633Z,11.30
2018-12-07T16:04:36.013Z,11.20
2018-12-07T16:09:29.647Z,11.10
2018-12-07T16:14:23.359Z,11.10
2018-12-07T16:19:16.755Z,11.10
2018-12-07T16:24:10.162Z,11.00
2018-12-07T16:29:03.612Z,11.00
2018-12-07T16:33:57.010Z,11.00
2018-12-07T16:38:50.529Z,11.00
2018-12-07T16:43:44.038Z,10.90
2018-12-07T16:48:37.683Z,11.00
2018-12-07T16:53:31.917Z,10.90
2018-12-07T16:58:25.224Z,10.90
2018-12-07T17:03:19.051Z,10.90
2018-12-07T17:08:12.844Z,10.90
2018-12-07T17:13:06.260Z,11.00
2018-12-07T17:17:59.644Z,10.90
2018-12-07T17:27:46.597Z,10.80
2018-12-07T17:32:40.196Z,10.80
2018-12-07T17:37:33.686Z,10.70
2018-12-07T17:42:29.712Z,10.60
2018-12-07T17:47:22.509Z,10.60
2018-12-07T17:52:15.926Z,10.50
2018-12-07T17:57:09.314Z,10.60
2018-12-07T18:02:02.521Z,10.40
2018-12-07T18:06:55.826Z,10.30
2018-12-07T18:11:49.131Z,10.20
2018-12-07T18:16:42.948Z,10.20
2018-12-07T18:21:36.393Z,10.10
2018-12-07T18:26:29.756Z,9.90
2018-12-07T18:31:23.763Z,9.90
2018-12-07T18:36:17.112Z,9.80
2018-12-07T18:41:10.505Z,9.80
2018-12-07T18:46:04.164Z,9.80
2018-12-07T18:50:57.742Z,9.80
2018-12-07T18:55:51.419Z,9.70
2018-12-07T19:00:45.241Z,9.40
2018-12-07T19:05:38.978Z,9.20
2018-12-07T19:10:32.500Z,8.90
2018-12-07T19:15:25.819Z,8.60
2018-12-07T19:20:19.334Z,8.50
2018-12-07T19:25:12.826Z,8.40
2018-12-07T19:30:14.494Z,8.50
2018-12-07T19:35:05.760Z,8.40
2018-12-07T19:39:59.318Z,8.50
2018-12-07T19:44:53.719Z,8.30
2018-12-07T19:49:47.436Z,8.30
2018-12-07T19:54:41.203Z,8.40
2018-12-07T19:59:34.737Z,8.40
2018-12-07T20:04:28.060Z,8.30
2018-12-07T20:09:21.438Z,8.40
2018-12-07T20:14:14.851Z,8.20
2018-12-07T20:19:08.377Z,8.20
2018-12-07T20:24:01.913Z,8.30
2018-12-07T20:28:55.400Z,8.30
2018-12-07T20:33:49.196Z,8.20
2018-12-07T20:38:43.256Z,8.10
2018-12-07T20:43:37.133Z,8.10
2018-12-07T20:48:31.026Z,8.10
2018-12-07T20:53:24.398Z,8.20
2018-12-07T20:58:17.824Z,8.00
2018-12-07T21:03:11.410Z,7.90
2018-12-07T21:08:12.631Z,7.90
2018-12-07T21:13:30.700Z,7.80
2018-12-07T21:18:24.332Z,7.60
2018-12-07T21:23:17.929Z,7.50
2018-12-07T21:28:11.265Z,7.40
2018-12-07T21:33:04.677Z,7.40
2018-12-07T21:37:57.930Z,7.40
2018-12-07T21:42:51.202Z,7.60
2018-12-07T21:48:49.241Z,7.70
2018-12-07T21:53:43.358Z,7.90
2018-12-07T21:58:37.318Z,8.10
2018-12-07T22:03:32.217Z,8.20
2018-12-07T22:08:25.588Z,8.40
2018-12-07T22:13:19.217Z,8.30
2018-12-07T22:18:12.571Z,7.90
2018-12-07T22:23:06.109Z,7.70
2018-12-07T22:27:59.744Z,7.70
2018-12-07T22:32:53.163Z,7.70
2018-12-07T22:37:46.534Z,7.70
2018-12-07T22:42:42.877Z,7.60
2018-12-07T22:47:36.213Z,7.60
2018-12-07T22:52:29.498Z,7.50
2018-12-07T22:57:23.054Z,7.60
2018-12-07T23:02:16.574Z,7.50
2018-12-07T23:07:10.334Z,7.40
2018-12-07T23:12:03.612Z,7.30
2018-12-07T23:16:56.832Z,7.20
2018-12-07T23:21:50.067Z,7.10
2018-12-07T23:26:43.297Z,7.10
2018-12-07T23:31:36.649Z,7.10
2018-12-07T23:36:29.928Z,7.00
2018-12-07T23:41:23.146Z,7.00
2018-12-07T23:46:16.447Z,6.90
2018-12-07T23:51:09.717Z,6.80
2018-12-07T23:56:03.898Z,6.90
